Time;durP1;ratioP1;P1;durP2;ratioP2;P2;SDS_P1;SDS_P2;PMS_P1;PMS_P2;Temp;Humidity;BMP_temperature;BMP_pressure;BME280_temperature;BME280_humidity;BME280_pressure;Samples;Min_cycle;Max_cycle;Signal;HPM_P1;HPM_P2
2022/11/29 00:02:53;;;;;;;23.00;14.77;;;;;;;12.20;62.57;98461.81;7003385;28;20213;-84
2022/11/29 00:06:19;;;;;;;22.17;15.23;;;;;;;12.19;62.68;98445.81;7013119;28;20206;-84
2022/11/29 00:09:41;;;;;;;24.60;16.33;;;;;;;12.13;63.16;98446.72;7014668;28;20226;-84
2022/11/29 00:13:03;;;;;;;20.50;15.23;;;;;;;12.35;62.49;98446.06;7014835;28;20206;-84
2022/11/29 00:16:26;;;;;;;21.03;15.37;;;;;;;12.12;62.96;98437.78;7001873;28;20291;-84
2022/11/29 00:19:47;;;;;;;20.33;15.10;;;;;;;12.18;63.10;98450.41;6984531;28;20220;-84
2022/11/29 00:23:09;;;;;;;30.47;18.00;;;;;;;12.09;62.21;98429.31;6983653;28;20237;-84
2022/11/29 00:26:30;;;;;;;22.87;16.40;;;;;;;12.37;62.43;98448.53;6982733;28;20318;-84
2022/11/29 00:29:52;;;;;;;19.53;15.43;;;;;;;11.63;62.99;98373.03;6985649;28;20320;-83
2022/11/29 00:33:15;;;;;;;22.87;15.97;;;;;;;11.98;62.35;98371.41;7035394;28;20205;-84
2022/11/29 00:52:38;;;;;;;21.67;14.93;;;;;;;12.28;62.87;98449.91;6876714;28;20850;-84
2022/11/29 00:56:00;;;;;;;20.63;14.93;;;;;;;12.22;62.51;98432.69;6927732;28;20207;-83
2022/11/29 00:59:25;;;;;;;21.27;15.70;;;;;;;12.65;61.55;98443.41;6928621;28;20227;-84
2022/11/29 01:02:46;;;;;;;18.00;14.00;;;;;;;12.45;62.15;98443.66;6908948;28;20227;-84
2022/11/29 01:14:06;;;;;;;16.43;13.10;;;;;;;12.52;61.82;98455.22;6893721;28;20291;-84
2022/11/29 01:17:49;;;;;;;16.73;12.97;;;;;;;12.66;61.43;98451.31;6901724;28;20737;-85
2022/11/29 01:38:07;;;;;;;18.57;14.60;;;;;;;12.27;63.12;98461.75;6708258;29;20228;-84
2022/11/29 01:41:30;;;;;;;17.10;13.57;;;;;;;12.44;62.77;98465.50;6751487;29;20238;-84
2022/11/29 02:07:15;;;;;;;17.63;14.07;;;;;;;12.47;62.24;98462.34;6795523;29;20211;-84
2022/11/29 02:19:58;;;;;;;18.40;14.13;;;;;;;12.21;63.41;98460.75;6702310;29;20253;-84
2022/11/29 02:23:44;;;;;;;18.10;13.67;;;;;;;12.08;63.61;98460.06;6791501;29;20218;-84
2022/11/29 02:27:30;;;;;;;19.50;14.30;;;;;;;11.68;65.19;98464.19;6793533;29;20235;-84
2022/11/29 02:31:30;;;;;;;20.77;15.03;;;;;;;11.94;64.40;98435.06;6798794;29;20248;-84
2022/11/29 02:34:59;;;;;;;19.33;15.23;;;;;;;12.27;63.83;98457.16;6740160;29;20218;-84
2022/11/29 02:38:29;;;;;;;18.70;14.90;;;;;;;12.13;63.97;98441.31;6818453;29;20225;-84
2022/11/29 02:42:05;;;;;;;19.53;15.53;;;;;;;12.40;63.63;98456.22;6830495;28;20231;-84
2022/11/29 02:45:38;;;;;;;19.97;15.17;;;;;;;12.41;63.92;98464.09;6930792;28;20235;-83
2022/11/29 02:49:07;;;;;;;21.33;16.50;;;;;;;12.50;63.65;98456.47;6975909;28;20367;-84
2022/11/29 02:52:46;;;;;;;21.97;16.37;;;;;;;12.36;63.89;98471.22;6977292;28;20257;-84
2022/11/29 02:56:13;;;;;;;22.23;17.40;;;;;;;12.39;64.04;98476.19;6976338;28;20277;-84
2022/11/29 02:59:42;;;;;;;23.23;17.97;;;;;;;12.25;64.13;98477.34;6976163;28;20186;-86
2022/11/29 03:03:10;;;;;;;24.17;18.13;;;;;;;12.35;63.92;98465.00;6974467;28;20267;-86
2022/11/29 03:06:39;;;;;;;25.90;17.40;;;;;;;12.27;64.27;98469.88;6972789;28;20309;-86
2022/11/29 03:10:05;;;;;;;23.40;18.60;;;;;;;12.44;64.20;98477.16;6973432;28;20206;-86
2022/11/29 03:13:38;;;;;;;23.77;17.40;;;;;;;12.36;64.22;98479.31;6973689;28;20217;-86
2022/11/29 03:17:03;;;;;;;22.23;17.23;;;;;;;12.40;64.19;98485.94;6998814;28;20236;-86
2022/11/29 03:20:38;;;;;;;25.37;18.57;;;;;;;12.42;63.92;98483.84;7028804;28;20272;-86
2022/11/29 03:24:04;;;;;;;22.63;17.37;;;;;;;12.49;63.86;98476.47;6973215;28;20331;-86
2022/11/29 03:27:32;;;;;;;24.73;17.07;;;;;;;12.57;63.44;98479.69;6972823;28;20657;-86
2022/11/29 03:30:58;;;;;;;23.03;16.57;;;;;;;12.48;63.38;98466.72;6973312;28;20354;-86
2022/11/29 03:34:25;;;;;;;23.47;17.10;;;;;;;12.36;63.88;98468.50;6973181;28;20194;-86
2022/11/29 03:37:54;;;;;;;23.27;16.93;;;;;;;12.78;63.07;98479.25;6972071;28;20298;-84
2022/11/29 03:41:21;;;;;;;21.43;16.43;;;;;;;12.67;62.96;98482.72;6978109;28;20186;-85
2022/11/29 03:44:49;;;;;;;21.23;16.57;;;;;;;12.44;63.65;98481.72;6980647;28;20271;-84
2022/11/29 03:48:15;;;;;;;22.67;16.70;;;;;;;12.62;63.38;98477.16;7001523;28;20310;-85
2022/11/29 03:51:49;;;;;;;23.53;17.20;;;;;;;12.67;62.83;98461.06;7003039;28;20210;-85
2022/11/29 03:55:23;;;;;;;24.87;17.77;;;;;;;12.48;63.22;98453.19;7007571;28;20221;-84
2022/11/29 03:58:50;;;;;;;26.20;17.50;;;;;;;12.25;63.64;98486.31;7010060;28;20284;-85
2022/11/29 04:02:44;;;;;;;21.53;16.70;;;;;;;12.48;63.87;98493.75;7012705;28;20304;-85
2022/11/29 04:06:21;;;;;;;23.47;16.93;;;;;;;12.46;64.11;98499.38;6994068;28;20241;-84
2022/11/29 04:09:56;;;;;;;27.43;17.40;;;;;;;12.53;63.95;98494.75;7007060;28;20652;-84
2022/11/29 04:13:35;;;;;;;23.00;18.63;;;;;;;12.55;63.96;98500.75;7006559;28;20216;-84
2022/11/29 04:17:22;;;;;;;25.87;18.87;;;;;;;12.51;63.70;98496.03;7004384;28;20225;-83
2022/11/29 04:20:55;;;;;;;27.30;19.03;;;;;;;12.62;63.68;98504.19;7003995;28;20233;-84
2022/11/29 04:24:55;;;;;;;22.73;16.57;;;;;;;12.90;63.03;98503.66;6977379;28;20340;-84
2022/11/29 04:28:40;;;;;;;22.37;17.50;;;;;;;12.71;63.31;98502.03;6967066;28;20272;-84
2022/11/29 04:32:19;;;;;;;24.80;17.43;;;;;;;12.88;63.02;98503.06;7000965;28;20366;-84
2022/11/29 04:36:35;;;;;;;21.07;16.27;;;;;;;12.87;63.05;98512.25;7032173;28;20226;-84
2022/11/29 04:40:12;;;;;;;20.00;15.30;;;;;;;12.66;63.05;98489.19;6886437;28;20795;-84
2022/11/29 04:44:03;;;;;;;22.57;16.30;;;;;;;12.89;62.79;98502.84;7033345;28;20184;-86
2022/11/29 04:47:42;;;;;;;22.57;17.03;;;;;;;12.49;63.35;98503.50;7015327;28;20725;-84
2022/11/29 04:51:12;;;;;;;23.90;16.27;;;;;;;12.70;63.32;98525.53;7027316;28;20270;-84
2022/11/29 04:54:36;;;;;;;27.40;17.70;;;;;;;12.80;62.63;98515.00;6981073;28;20218;-84
2022/11/29 04:58:16;;;;;;;24.20;17.57;;;;;;;12.53;63.73;98520.94;6981501;28;20246;-84
2022/11/29 05:01:48;;;;;;;27.90;18.43;;;;;;;12.69;63.34;98523.06;6997942;28;20322;-84
2022/11/29 05:05:21;;;;;;;24.27;19.33;;;;;;;12.54;64.00;98531.56;7021866;28;20735;-84
2022/11/29 05:08:50;;;;;;;25.57;17.60;;;;;;;12.57;64.07;98519.47;6979749;28;20314;-85
2022/11/29 05:12:19;;;;;;;29.83;19.03;;;;;;;12.51;64.16;98523.88;6995917;28;20248;-86
2022/11/29 05:16:02;;;;;;;23.70;17.97;;;;;;;12.57;64.48;98536.50;7002828;28;20280;-84
2022/11/29 05:19:34;;;;;;;27.93;18.70;;;;;;;12.47;64.14;98509.16;7002360;28;20316;-84
2022/11/29 05:23:11;;;;;;;22.17;18.13;;;;;;;12.54;64.30;98536.97;7002817;28;20216;-84
2022/11/29 05:26:38;;;;;;;23.47;18.73;;;;;;;12.61;64.47;98539.56;6983301;28;20631;-84
2022/11/29 05:30:05;;;;;;;24.17;17.83;;;;;;;12.88;63.52;98551.78;6989754;28;20670;-84
2022/11/29 05:33:52;;;;;;;24.60;17.93;;;;;;;12.92;63.21;98532.16;7000438;28;20209;-84
2022/11/29 05:37:22;;;;;;;28.23;19.70;;;;;;;12.60;63.41;98521.69;6862068;28;20295;-84
2022/11/29 05:40:48;;;;;;;25.13;17.93;;;;;;;12.88;63.45;98546.34;6862676;28;20287;-84
2022/11/29 05:44:12;;;;;;;23.93;17.97;;;;;;;12.80;63.51;98550.19;6863227;28;20699;-84
2022/11/29 05:47:40;;;;;;;22.17;17.70;;;;;;;12.73;63.95;98544.03;6861636;28;20388;-84
2022/11/29 05:51:11;;;;;;;23.73;18.47;;;;;;;12.78;64.08;98543.34;6861620;28;20216;-84
2022/11/29 05:54:35;;;;;;;24.43;18.47;;;;;;;12.71;64.16;98551.56;6862489;28;20212;-85
2022/11/29 05:58:00;;;;;;;24.60;18.37;;;;;;;12.57;64.72;98565.44;6862246;28;20316;-85
2022/11/29 06:01:23;;;;;;;21.10;17.10;;;;;;;12.66;64.61;98558.66;6862870;28;20209;-85
2022/11/29 06:04:56;;;;;;;21.63;17.47;;;;;;;12.45;65.34;98559.09;6864493;28;20690;-86
2022/11/29 06:08:23;;;;;;;23.70;17.63;;;;;;;11.95;65.25;98473.69;6862262;28;20682;-86
2022/11/29 06:11:47;;;;;;;23.27;16.60;;;;;;;12.59;65.00;98557.91;6862067;28;20216;-85
2022/11/29 06:15:26;;;;;;;20.07;15.93;;;;;;;12.76;64.58;98559.78;6958826;28;20336;-86
2022/11/29 06:19:18;;;;;;;20.83;15.53;;;;;;;12.81;64.63;98562.66;6999459;28;20808;-86
2022/11/29 06:22:51;;;;;;;24.80;18.20;;;;;;;12.83;64.29;98581.38;6979345;28;20284;-86
2022/11/29 06:26:23;;;;;;;23.63;18.40;;;;;;;12.79;64.40;98581.00;6977736;28;20669;-85
2022/11/29 06:29:50;;;;;;;22.13;17.47;;;;;;;12.64;64.35;98553.47;6974889;28;20190;-86
2022/11/29 06:33:17;;;;;;;22.70;16.87;;;;;;;12.51;65.49;98596.06;6976318;28;20313;-85
2022/11/29 06:36:42;;;;;;;24.27;17.13;;;;;;;12.82;64.85;98580.56;6975653;28;20717;-84
2022/11/29 06:40:04;;;;;;;23.93;17.13;;;;;;;12.86;64.21;98581.75;6973651;28;20293;-83
2022/11/29 06:43:28;;;;;;;23.77;17.33;;;;;;;12.97;64.08;98594.56;6974496;28;20239;-86
2022/11/29 06:46:55;;;;;;;23.47;17.73;;;;;;;13.01;63.94;98601.19;7000357;28;20375;-86
2022/11/29 06:50:30;;;;;;;29.13;18.50;;;;;;;12.93;63.89;98600.63;6978903;28;20313;-84
2022/11/29 06:53:59;;;;;;;25.27;17.80;;;;;;;12.86;64.43;98605.28;6972818;28;20667;-83
2022/11/29 06:57:27;;;;;;;24.43;18.07;;;;;;;12.76;64.71;98596.84;6972670;28;20714;-84
2022/11/29 07:00:52;;;;;;;28.47;18.90;;;;;;;12.85;64.69;98609.03;6974358;28;20666;-81
2022/11/29 07:04:32;;;;;;;28.90;20.47;;;;;;;12.92;64.58;98610.63;7027476;28;20311;-85
2022/11/29 07:07:56;;;;;;;28.57;19.50;;;;;;;13.19;64.83;98606.59;7027479;28;20252;-87
2022/11/29 07:11:18;;;;;;;28.10;18.80;;;;;;;13.24;64.20;98617.59;7021008;28;20311;-84
2022/11/29 07:14:40;;;;;;;30.43;19.80;;;;;;;13.18;64.15;98625.78;7002461;28;20244;-81
2022/11/29 07:18:14;;;;;;;29.13;18.37;;;;;;;12.85;64.44;98609.03;6983048;28;20226;-79
2022/11/29 07:21:46;;;;;;;27.07;17.23;;;;;;;13.04;64.48;98627.78;6974530;28;20206;-79
2022/11/29 07:25:15;;;;;;;34.70;23.23;;;;;;;13.03;64.38;98618.03;6974285;28;20210;-79
2022/11/29 07:28:47;;;;;;;26.73;16.80;;;;;;;12.94;64.72;98637.47;6996188;28;20308;-87
2022/11/29 07:32:12;;;;;;;62.13;40.53;;;;;;;13.14;64.27;98638.09;6992181;28;20265;-83
2022/11/29 07:35:41;;;;;;;37.83;24.53;;;;;;;12.99;64.08;98607.88;6978345;28;20241;-86
2022/11/29 07:39:12;;;;;;;29.60;19.50;;;;;;;12.93;64.18;98608.75;6974469;28;20253;-79
2022/11/29 07:42:40;;;;;;;31.27;19.03;;;;;;;12.83;65.18;98640.91;6973869;28;20324;-87
2022/11/29 07:46:02;;;;;;;30.30;19.07;;;;;;;12.96;64.68;98635.38;6984202;28;20269;-83
2022/11/29 07:49:24;;;;;;;32.30;18.53;;;;;;;12.87;64.86;98648.34;6989655;28;20228;-84
2022/11/29 07:52:47;;;;;;;65.53;39.93;;;;;;;12.88;65.06;98633.78;6983509;28;20218;-83
2022/11/29 07:56:09;;;;;;;38.33;23.53;;;;;;;13.12;64.63;98645.63;6994707;28;20293;-83
2022/11/29 07:59:30;;;;;;;52.77;30.63;;;;;;;12.87;65.26;98644.81;6978429;28;20214;-83
2022/11/29 08:02:52;;;;;;;30.90;18.10;;;;;;;13.03;64.50;98652.38;6974263;28;20308;-83
2022/11/29 08:06:13;;;;;;;24.07;15.83;;;;;;;12.95;65.05;98639.09;6972461;28;20217;-84
2022/11/29 08:09:36;;;;;;;38.90;33.63;;;;;;;13.13;64.59;98653.53;6985492;28;20222;-83
2022/11/29 08:12:58;;;;;;;42.67;30.23;;;;;;;13.19;64.36;98649.06;6973959;28;20257;-83
2022/11/29 08:16:19;;;;;;;25.73;17.73;;;;;;;13.19;64.46;98654.50;6987533;28;20230;-83
2022/11/29 08:19:41;;;;;;;20.50;14.33;;;;;;;13.17;64.59;98657.41;6973905;28;20281;-84
2022/11/29 08:23:02;;;;;;;23.63;16.93;;;;;;;13.18;64.64;98656.38;6983710;28;20233;-83
2022/11/29 08:26:25;;;;;;;23.47;15.13;;;;;;;13.12;64.40;98651.88;7002972;28;20259;-83
2022/11/29 08:29:47;;;;;;;36.20;29.20;;;;;;;13.10;64.50;98655.84;6995872;28;20245;-83
2022/11/29 08:33:10;;;;;;;25.47;17.93;;;;;;;13.06;64.87;98660.06;6988056;28;20310;-84
2022/11/29 08:36:31;;;;;;;21.70;16.33;;;;;;;13.05;64.93;98671.94;7005790;28;20256;-84
2022/11/29 08:39:54;;;;;;;26.57;15.17;;;;;;;12.87;65.52;98666.47;6995264;28;20209;-84
2022/11/29 08:43:16;;;;;;;21.17;14.27;;;;;;;13.03;65.03;98680.28;6991295;28;20931;-83
2022/11/29 08:50:18;;;;;;;24.93;16.83;;;;;;;13.14;64.59;98681.41;7003418;28;20281;-83
2022/11/29 08:53:43;;;;;;;27.37;16.27;;;;;;;13.17;64.70;98641.16;7004428;28;20270;-83
2022/11/29 08:57:05;;;;;;;31.67;17.10;;;;;;;13.06;64.73;98658.19;6996357;28;20217;-83
2022/11/29 09:00:28;;;;;;;80.83;55.00;;;;;;;13.29;64.64;98684.59;6978830;28;20221;-83
2022/11/29 09:04:02;;;;;;;39.83;25.87;;;;;;;13.14;64.52;98679.53;6994737;28;20340;-83
2022/11/29 09:07:23;;;;;;;45.40;27.50;;;;;;;13.11;64.55;98655.59;6985976;28;20232;-83
2022/11/29 09:10:46;;;;;;;56.90;34.30;;;;;;;13.38;64.59;98680.50;6982064;28;20271;-82
2022/11/29 09:14:09;;;;;;;28.77;16.97;;;;;;;13.46;64.37;98689.16;7001978;28;20217;-83
2022/11/29 09:17:32;;;;;;;62.37;47.17;;;;;;;13.39;64.19;98698.44;7004511;28;20261;-83
2022/11/29 09:20:53;;;;;;;35.03;22.70;;;;;;;13.45;64.07;98673.97;7005648;28;20904;-83
2022/11/29 09:24:15;;;;;;;47.10;32.20;;;;;;;13.64;63.93;98685.63;7006537;28;20222;-83
2022/11/29 09:27:37;;;;;;;25.73;16.33;;;;;;;13.43;63.81;98688.78;7004942;28;20229;-83
2022/11/29 09:31:04;;;;;;;24.77;14.97;;;;;;;13.43;64.15;98696.91;7006373;28;20293;-83
2022/11/29 09:34:27;;;;;;;21.83;13.93;;;;;;;13.62;63.73;98701.28;6999542;28;20210;-83
2022/11/29 09:37:48;;;;;;;21.57;13.80;;;;;;;13.54;63.78;98704.28;6995199;28;20250;-83
2022/11/29 09:41:27;;;;;;;24.00;15.23;;;;;;;13.59;63.18;98693.59;6992148;28;20304;-83
2022/11/29 09:44:56;;;;;;;21.97;14.80;;;;;;;13.63;63.27;98711.06;6986744;28;20230;-83
2022/11/29 09:48:44;;;;;;;20.63;15.83;;;;;;;13.98;62.70;98695.81;7005399;28;20302;-82
2022/11/29 09:52:13;;;;;;;16.97;14.43;;;;;;;13.31;62.79;98687.88;6995877;28;20274;-81
2022/11/29 09:55:45;;;;;;;14.93;11.93;;;;;;;13.65;62.71;98717.91;6991137;28;20581;-83
2022/11/29 09:59:10;;;;;;;15.73;9.17;;;;;;;13.90;62.05;98724.06;6984662;28;20303;-80
2022/11/29 10:02:36;;;;;;;10.63;8.97;;;;;;;13.80;62.49;98707.50;6977155;28;20248;-82
2022/11/29 10:06:00;;;;;;;12.53;10.10;;;;;;;13.93;61.95;98706.53;6975098;28;20293;-85
2022/11/29 10:09:27;;;;;;;10.37;9.27;;;;;;;13.93;61.40;98707.31;6976986;28;20237;-82
2022/11/29 10:12:50;;;;;;;9.83;8.73;;;;;;;13.82;61.07;98721.69;7001135;28;20267;-82
2022/11/29 10:16:15;;;;;;;12.57;11.20;;;;;;;13.86;61.11;98722.03;7003032;28;20201;-81
2022/11/29 10:19:38;;;;;;;10.00;9.00;;;;;;;13.52;61.44;98698.28;7004697;28;20287;-81
2022/11/29 10:23:03;;;;;;;9.97;8.97;;;;;;;13.52;62.18;98719.94;7004121;28;20229;-81
2022/11/29 10:26:27;;;;;;;14.10;12.37;;;;;;;13.35;62.45;98717.03;6997780;28;20227;-82
2022/11/29 10:29:50;;;;;;;11.80;10.60;;;;;;;13.65;61.29;98725.22;7004399;28;20238;-82
2022/11/29 10:33:16;;;;;;;13.60;11.50;;;;;;;13.80;61.57;98720.25;7007762;28;20260;-81
2022/11/29 10:36:41;;;;;;;14.40;12.03;;;;;;;13.96;61.12;98714.19;7010548;28;20221;-82
2022/11/29 10:40:06;;;;;;;11.80;10.60;;;;;;;13.25;62.58;98722.13;7003564;28;20290;-81
2022/11/29 10:43:29;;;;;;;12.80;10.70;;;;;;;13.13;62.43;98713.06;6992953;28;20220;-81
2022/11/29 10:46:52;;;;;;;11.40;10.27;;;;;;;13.22;62.98;98719.03;6995958;28;20232;-81
2022/11/29 10:50:24;;;;;;;11.47;10.17;;;;;;;13.27;62.18;98721.91;7003273;28;20212;-81
2022/11/29 10:53:46;;;;;;;19.83;17.70;;;;;;;13.72;61.65;98720.53;6982172;28;20210;-81
2022/11/29 10:57:13;;;;;;;11.60;10.50;;;;;;;13.49;61.82;98721.22;6975812;28;20227;-82
2022/11/29 11:00:45;;;;;;;11.43;10.17;;;;;;;13.39;61.89;98709.28;6974334;28;20197;-78
2022/11/29 11:04:09;;;;;;;12.67;10.93;;;;;;;13.77;61.04;98715.25;6997876;28;20273;-83
2022/11/29 11:07:34;;;;;;;12.60;11.17;;;;;;;13.69;60.77;98715.59;7001361;28;20221;-78
2022/11/29 11:10:56;;;;;;;12.13;10.93;;;;;;;13.84;60.55;98724.97;7000754;28;20296;-80
2022/11/29 11:14:20;;;;;;;12.30;11.10;;;;;;;13.36;61.69;98726.78;6995811;28;20307;-81
2022/11/29 11:17:56;;;;;;;12.03;10.83;;;;;;;13.45;61.68;98721.91;6974199;28;20316;-80
2022/11/29 11:21:19;;;;;;;13.63;12.20;;;;;;;12.97;62.32;98716.34;6974166;28;20190;-80
2022/11/29 11:24:41;;;;;;;13.77;12.13;;;;;;;13.08;62.30;98704.78;6976036;28;20273;-80
2022/11/29 11:28:16;;;;;;;15.43;12.43;;;;;;;12.87;62.50;98715.16;6984273;28;20261;-78
2022/11/29 11:31:39;;;;;;;16.83;12.13;;;;;;;12.97;62.96;98715.50;7002567;28;20711;-80
2022/11/29 11:35:02;;;;;;;15.03;13.07;;;;;;;13.04;62.64;98721.72;7002222;28;20212;-81
2022/11/29 11:38:24;;;;;;;17.20;12.97;;;;;;;13.15;62.35;98726.41;7002242;28;20312;-81
2022/11/29 11:45:32;;;;;;;14.07;12.40;;;;;;;12.96;63.17;98736.34;6997933;28;20190;-80
2022/11/29 11:48:54;;;;;;;13.17;11.77;;;;;;;13.20;62.37;98727.38;7002033;28;20256;-81
2022/11/29 11:52:20;;;;;;;13.87;12.47;;;;;;;13.42;61.90;98727.75;6993796;28;20263;-81
2022/11/29 11:55:44;;;;;;;13.33;11.83;;;;;;;13.34;61.76;98739.72;6976675;28;20206;-81
2022/11/29 11:59:05;;;;;;;13.17;11.50;;;;;;;13.13;62.27;98736.59;6979564;28;20716;-81
2022/11/29 12:02:29;;;;;;;13.20;11.80;;;;;;;13.24;62.91;98739.41;6987658;28;20300;-81
2022/11/29 12:05:52;;;;;;;13.10;11.70;;;;;;;13.34;62.63;98742.41;7007305;28;20266;-81
2022/11/29 12:09:23;;;;;;;11.30;10.00;;;;;;;13.23;62.68;98736.94;7007613;28;20312;-80
2022/11/29 12:12:45;;;;;;;12.13;10.83;;;;;;;13.36;62.54;98725.94;7007982;28;20213;-81
2022/11/29 12:16:10;;;;;;;11.33;10.10;;;;;;;13.40;62.00;98743.41;7007118;28;20238;-81
2022/11/29 12:19:35;;;;;;;10.57;9.47;;;;;;;13.66;61.57;98727.69;6980735;28;20276;-82
2022/11/29 12:23:22;;;;;;;10.00;9.00;;;;;;;13.32;61.35;98751.81;6979041;28;20711;-81
2022/11/29 12:26:45;;;;;;;9.80;8.53;;;;;;;13.04;62.54;98746.06;6997449;28;20249;-81
2022/11/29 12:30:12;;;;;;;8.37;7.47;;;;;;;13.08;62.62;98742.69;7008119;28;20292;-81
2022/11/29 12:33:39;;;;;;;38.20;18.70;;;;;;;13.35;61.87;98735.13;7006913;28;20244;-81
2022/11/29 12:37:05;;;;;;;8.47;7.60;;;;;;;13.00;62.50;98761.94;7005314;28;20363;-82
2022/11/29 12:40:34;;;;;;;8.97;8.00;;;;;;;13.13;62.15;98766.38;6981623;28;20326;-82
2022/11/29 12:44:05;;;;;;;8.43;7.47;;;;;;;13.09;62.46;98765.19;6987243;28;20229;-81
2022/11/29 12:47:36;;;;;;;12.53;9.67;;;;;;;13.41;62.34;98761.31;7005177;28;20216;-82
2022/11/29 12:51:03;;;;;;;9.90;8.90;;;;;;;13.47;62.17;98750.44;7004693;28;20210;-81
2022/11/29 12:54:39;;;;;;;10.33;8.67;;;;;;;13.49;61.85;98772.69;7006247;28;20249;-80
2022/11/29 12:58:07;;;;;;;9.87;8.80;;;;;;;13.45;61.73;98765.25;6998000;28;20313;-81
2022/11/29 13:01:37;;;;;;;10.03;8.93;;;;;;;13.57;61.54;98763.44;6977847;28;20368;-81
2022/11/29 13:05:02;;;;;;;9.60;8.33;;;;;;;13.31;61.79;98721.22;7021089;28;20237;-83
2022/11/29 13:08:44;;;;;;;9.63;8.13;;;;;;;13.55;61.73;98774.50;6998559;28;20890;-81
2022/11/29 13:12:12;;;;;;;9.80;8.20;;;;;;;13.18;62.26;98755.72;6991059;28;20222;-81
2022/11/29 13:15:39;;;;;;;8.00;7.20;;;;;;;13.25;62.21;98778.97;6990223;28;20629;-81
2022/11/29 13:19:07;;;;;;;8.60;7.40;;;;;;;13.43;61.83;98773.59;6991849;28;20252;-80
2022/11/29 13:22:37;;;;;;;8.90;7.87;;;;;;;13.44;61.59;98767.13;6990631;28;20222;-81
2022/11/29 13:26:00;;;;;;;7.40;6.60;;;;;;;13.52;61.60;98766.81;6977782;28;20214;-81
2022/11/29 13:29:22;;;;;;;8.67;7.77;;;;;;;13.48;61.59;98781.88;6998779;28;20824;-81
2022/11/29 13:32:48;;;;;;;8.07;7.17;;;;;;;13.27;62.02;98782.28;7004822;28;20259;-81
2022/11/29 13:36:13;;;;;;;9.33;8.27;;;;;;;13.14;62.70;98781.56;7004546;28;20670;-80
2022/11/29 13:39:41;;;;;;;8.40;7.60;;;;;;;13.45;61.95;98774.19;7005571;28;20209;-81
2022/11/29 13:43:09;;;;;;;9.23;7.40;;;;;;;13.00;62.46;98758.38;7004550;28;20189;-83
2022/11/29 13:46:36;;;;;;;8.50;7.60;;;;;;;13.39;62.33;98779.69;7004855;28;20190;-82
2022/11/29 13:50:01;;;;;;;9.43;7.80;;;;;;;13.14;62.40;98747.22;7005805;28;20265;-82
2022/11/29 13:53:25;;;;;;;9.60;8.53;;;;;;;13.45;62.16;98786.91;7005324;28;20262;-82
2022/11/29 13:56:46;;;;;;;9.17;7.93;;;;;;;13.15;62.32;98751.56;7005053;28;20230;-83
2022/11/29 14:00:27;;;;;;;9.70;7.63;;;;;;;13.27;62.31;98792.28;7005865;28;20273;-83
2022/11/29 14:04:01;;;;;;;8.33;7.53;;;;;;;13.29;62.53;98793.69;7006087;28;20662;-83
2022/11/29 14:07:23;;;;;;;8.73;7.77;;;;;;;13.49;61.82;98802.47;7005008;28;20275;-83
2022/11/29 14:10:47;;;;;;;8.37;7.47;;;;;;;13.17;62.64;98809.00;6987199;28;20701;-82
2022/11/29 14:14:17;;;;;;;8.43;7.53;;;;;;;13.08;63.24;98798.69;6985104;28;20316;-83
2022/11/29 14:17:51;;;;;;;9.73;8.13;;;;;;;13.32;62.59;98795.13;6988763;28;20221;-83
2022/11/29 14:21:12;;;;;;;9.43;8.00;;;;;;;13.34;61.89;98764.09;7008382;28;20209;-83
2022/11/29 14:24:41;;;;;;;10.27;8.43;;;;;;;13.36;62.34;98807.19;6976961;28;20206;-81
2022/11/29 14:28:28;;;;;;;11.47;8.90;;;;;;;13.30;62.62;98799.97;6982747;28;20302;-81
2022/11/29 14:31:52;;;;;;;11.47;10.27;;;;;;;13.39;62.15;98785.91;6981948;28;20228;-81
2022/11/29 14:35:15;;;;;;;10.30;9.30;;;;;;;13.46;61.84;98807.53;6979002;28;20696;-80
2022/11/29 14:38:43;;;;;;;11.97;9.43;;;;;;;12.70;63.00;98773.56;6990769;28;20317;-83
2022/11/29 14:42:13;;;;;;;10.10;9.00;;;;;;;13.16;62.59;98815.47;6992334;28;20651;-81
2022/11/29 14:45:36;;;;;;;10.70;9.17;;;;;;;13.12;62.57;98814.28;6990589;28;20219;-81
2022/11/29 14:49:00;;;;;;;10.50;9.40;;;;;;;13.04;62.74;98819.16;6996700;28;20220;-81
2022/11/29 14:52:27;;;;;;;9.73;8.73;;;;;;;13.17;62.39;98811.72;6987401;28;20210;-81
2022/11/29 14:55:48;;;;;;;12.20;9.80;;;;;;;13.25;61.82;98803.34;6974764;28;20190;-80
2022/11/29 14:59:38;;;;;;;9.30;7.97;;;;;;;13.14;62.05;98831.13;6975261;28;20691;-81
2022/11/29 15:03:05;;;;;;;8.93;8.03;;;;;;;13.03;62.52;98825.59;6986456;28;20297;-80
2022/11/29 15:06:27;;;;;;;9.33;7.93;;;;;;;12.86;62.63;98832.56;6974940;28;20197;-81
2022/11/29 15:09:50;;;;;;;10.87;9.17;;;;;;;12.85;62.96;98818.22;6983332;28;20194;-81
2022/11/29 15:13:13;;;;;;;10.93;9.77;;;;;;;13.01;62.53;98846.63;6993188;28;20222;-81
2022/11/29 15:16:56;;;;;;;12.50;10.80;;;;;;;12.38;62.70;98780.00;6989607;28;20217;-80
2022/11/29 15:20:38;;;;;;;11.47;10.27;;;;;;;13.01;62.86;98846.63;6988404;28;20191;-81
2022/11/29 15:24:02;;;;;;;13.10;11.20;;;;;;;13.02;62.39;98841.00;6991227;28;20190;-81
2022/11/29 15:27:24;;;;;;;14.50;12.30;;;;;;;12.89;62.60;98853.78;6984287;28;20225;-81
2022/11/29 15:30:46;;;;;;;12.17;9.60;;;;;;;12.90;62.64;98837.31;6988260;28;20205;-81
2022/11/29 15:34:19;;;;;;;13.53;11.53;;;;;;;12.83;62.54;98833.84;6979609;28;20300;-81
2022/11/29 15:37:43;;;;;;;13.73;11.73;;;;;;;12.83;62.51;98849.22;6996374;28;20341;-80
2022/11/29 15:41:05;;;;;;;13.67;11.30;;;;;;;12.89;62.44;98849.19;6996031;28;20577;-82
2022/11/29 15:44:26;;;;;;;13.37;11.97;;;;;;;12.86;62.96;98854.22;6985870;28;20201;-80
2022/11/29 15:47:48;;;;;;;12.57;10.93;;;;;;;12.88;62.77;98858.38;6982825;28;20333;-82
2022/11/29 15:51:18;;;;;;;37.73;21.43;;;;;;;12.91;62.54;98855.22;6981628;28;20210;-83
2022/11/29 15:54:43;;;;;;;62.77;35.30;;;;;;;12.99;63.49;98875.81;6972906;28;20353;-82
2022/11/29 15:58:05;;;;;;;53.53;27.73;;;;;;;12.78;63.77;98871.53;6972920;28;20226;-87
2022/11/29 16:01:26;;;;;;;25.37;17.93;;;;;;;13.04;62.63;98878.69;6973155;28;20293;-85
2022/11/29 16:04:50;;;;;;;14.93;12.00;;;;;;;12.86;62.38;98849.63;6972168;28;20242;-85
2022/11/29 16:08:14;;;;;;;12.20;10.73;;;;;;;12.97;62.51;98876.03;6972841;28;20272;-85
2022/11/29 16:11:38;;;;;;;14.73;12.43;;;;;;;12.89;62.95;98875.41;6973031;28;20213;-88
2022/11/29 16:15:00;;;;;;;15.10;13.50;;;;;;;12.62;62.95;98863.94;6985817;28;20224;-84
2022/11/29 16:18:24;;;;;;;17.13;13.73;;;;;;;12.62;64.07;98890.16;7029431;28;20357;-84
2022/11/29 16:21:45;;;;;;;14.33;12.47;;;;;;;12.84;62.93;98891.47;7028940;28;20244;-84
2022/11/29 16:25:16;;;;;;;14.97;13.47;;;;;;;12.75;63.11;98895.50;7027482;28;20229;-84
2022/11/29 16:28:42;;;;;;;14.97;12.57;;;;;;;12.84;62.82;98886.06;7038626;28;20591;-84
2022/11/29 16:32:14;;;;;;;14.67;13.17;;;;;;;13.00;62.50;98899.97;7027780;28;20277;-83
2022/11/29 16:35:36;;;;;;;14.60;12.03;;;;;;;12.89;62.65;98894.38;7027345;28;20366;-83
2022/11/29 16:39:04;;;;;;;15.03;12.53;;;;;;;12.94;62.41;98903.50;7028283;28;20263;-83
2022/11/29 16:42:27;;;;;;;12.27;11.07;;;;;;;13.00;62.07;98908.06;7028624;28;20212;-83
2022/11/29 16:46:18;;;;;;;13.77;11.97;;;;;;;13.05;62.06;98900.09;6999931;28;20305;-83
2022/11/29 16:49:39;;;;;;;20.13;16.97;;;;;;;12.96;62.36;98912.25;6979212;28;20295;-83
2022/11/29 16:53:32;;;;;;;17.37;13.53;;;;;;;13.21;61.97;98907.72;6978738;28;20682;-83
2022/11/29 16:56:55;;;;;;;15.10;13.40;;;;;;;13.13;61.74;98893.59;6981500;28;20734;-83
2022/11/29 17:00:31;;;;;;;15.67;13.50;;;;;;;13.15;61.69;98902.34;6979295;28;20697;-83
2022/11/29 17:03:55;;;;;;;18.70;14.17;;;;;;;13.02;61.84;98892.44;6978724;28;20217;-83
2022/11/29 17:07:22;;;;;;;21.53;16.77;;;;;;;12.81;62.48;98902.75;6977761;28;20313;-84
2022/11/29 17:10:44;;;;;;;17.93;14.37;;;;;;;12.70;62.20;98884.50;6978562;28;20191;-83
2022/11/29 17:14:05;;;;;;;18.47;14.83;;;;;;;12.92;62.43;98904.75;6977822;28;20656;-83
2022/11/29 17:17:27;;;;;;;14.00;12.57;;;;;;;12.74;62.82;98912.78;6976857;28;20317;-83
2022/11/29 17:20:50;;;;;;;16.87;15.10;;;;;;;12.61;62.83;98875.78;6976765;28;20292;-83